Terminal Aerodrome Forecast
Issued by NWS

Home | Current Version | Previous Version | Text Only | Print | Product List | Glossary On
Versions: 1 2 3 4 5 6 7 8 9 10 11 12 13
000
FTUS45 KTFX 021138
TAFBZN
TAF
KBZN 021138Z 0212/0312 16008KT P6SM SCT150
      TEMPO 0212/0214 3SM BR SCT008
     FM021800 29006KT P6SM VCSH SCT050 BKN100
      TEMPO 0218/0220 -SHRA BKN050
     FM022000 28010G20KT P6SM -SHRA SCT030 OVC050
      TEMPO 0220/0224 VRB15G40KT 5SM TSRA BKN030CB
     FM030100 VRB06KT P6SM BKN120=

USA.gov is the U.S. government's official web portal to all federal, state and local government web resources and services.